createdAt,value
2023-01-19T00:00:51.292Z,7.23
2023-01-19T00:03:18.447Z,7.80
2023-01-19T00:05:45.541Z,7.37
2023-01-19T00:08:16.027Z,6.63
2023-01-19T00:10:44.819Z,7.33
2023-01-19T00:13:11.964Z,7.43
2023-01-19T00:15:38.609Z,7.87
2023-01-19T00:18:05.566Z,7.63
2023-01-19T00:20:32.826Z,8.33
2023-01-19T00:23:00.084Z,8.20
2023-01-19T00:25:27.111Z,8.40
2023-01-19T00:27:53.772Z,8.83
2023-01-19T00:30:20.581Z,8.40
2023-01-19T00:32:47.236Z,7.63
2023-01-19T00:35:13.936Z,8.50
2023-01-19T00:37:40.635Z,7.90
2023-01-19T00:40:08.160Z,8.03
2023-01-19T00:42:40.914Z,8.17
2023-01-19T00:45:09.089Z,8.83
2023-01-19T00:47:35.841Z,7.30
2023-01-19T00:50:02.633Z,7.87
2023-01-19T00:52:29.275Z,8.00
2023-01-19T00:54:55.923Z,7.40
2023-01-19T00:57:23.441Z,7.97
2023-01-19T00:59:50.217Z,8.20
2023-01-19T01:02:17.124Z,8.17
2023-01-19T01:04:44.038Z,7.60
2023-01-19T01:07:10.739Z,9.10
2023-01-19T01:09:37.395Z,8.37
2023-01-19T01:12:04.193Z,7.87
2023-01-19T01:14:32.916Z,7.90
2023-01-19T01:17:00.575Z,7.77
2023-01-19T01:19:27.447Z,7.70
2023-01-19T01:21:55.389Z,8.23
2023-01-19T01:24:22.283Z,7.80
2023-01-19T01:26:48.915Z,6.97
2023-01-19T01:29:15.587Z,7.93
2023-01-19T01:31:42.307Z,7.43
2023-01-19T01:34:09.043Z,8.10
2023-01-19T01:36:36.032Z,7.97
2023-01-19T01:39:03.670Z,6.63
2023-01-19T01:41:30.765Z,6.77
2023-01-19T01:43:58.615Z,8.30
2023-01-19T01:46:26.879Z,7.10
2023-01-19T01:48:56.687Z,7.93
2023-01-19T01:51:37.473Z,7.03
2023-01-19T01:54:34.863Z,7.23
2023-01-19T01:57:05.191Z,7.20
2023-01-19T01:59:39.203Z,8.43
2023-01-19T02:02:34.182Z,7.37
2023-01-19T02:05:05.798Z,7.40
2023-01-19T02:08:03.560Z,8.20
2023-01-19T02:10:52.999Z,8.50
2023-01-19T02:13:21.154Z,8.20
2023-01-19T02:15:50.147Z,7.33
2023-01-19T02:18:17.221Z,7.60
2023-01-19T02:20:53.599Z,7.90
2023-01-19T02:23:38.894Z,7.50
2023-01-19T02:26:07.277Z,7.63
2023-01-19T02:28:34.313Z,8.23
2023-01-19T02:31:01.089Z,7.90
2023-01-19T02:33:27.740Z,7.83
2023-01-19T02:35:56.805Z,7.70
2023-01-19T02:38:26.889Z,8.43
2023-01-19T02:40:57.789Z,8.60
2023-01-19T02:43:25.165Z,8.27
2023-01-19T02:45:52.035Z,7.87
2023-01-19T02:48:21.095Z,7.40
2023-01-19T02:50:52.976Z,8.03
2023-01-19T02:53:45.777Z,7.87
2023-01-19T02:56:15.548Z,7.30
2023-01-19T02:59:41.162Z,8.07
2023-01-19T03:02:33.128Z,6.60
2023-01-19T03:05:04.899Z,7.67
2023-01-19T03:07:59.207Z,6.73
2023-01-19T03:10:47.439Z,7.60
2023-01-19T03:13:34.447Z,7.10
2023-01-19T03:16:06.093Z,8.30
2023-01-19T03:18:35.507Z,7.33
2023-01-19T03:21:06.271Z,7.57
2023-01-19T03:23:36.521Z,7.43
2023-01-19T03:26:05.879Z,6.10
2023-01-19T03:28:34.880Z,8.20
2023-01-19T03:31:16.661Z,8.37
2023-01-19T03:33:48.717Z,7.30
2023-01-19T03:36:39.267Z,7.00
2023-01-19T03:39:09.722Z,7.17
2023-01-19T03:41:39.221Z,7.40
2023-01-19T03:44:06.623Z,7.57
2023-01-19T03:46:34.558Z,8.03
2023-01-19T03:49:01.274Z,7.37
2023-01-19T03:51:28.015Z,6.63
2023-01-19T03:53:54.712Z,8.23
2023-01-19T03:56:23.620Z,7.90
2023-01-19T03:58:51.130Z,7.87
2023-01-19T04:01:22.685Z,8.00
2023-01-19T04:03:50.723Z,7.23
2023-01-19T04:06:18.141Z,8.37
2023-01-19T04:08:44.989Z,8.83
2023-01-19T04:11:12.228Z,7.47
2023-01-19T04:13:38.936Z,8.23
2023-01-19T04:16:06.530Z,7.90
2023-01-19T04:18:34.909Z,8.00
2023-01-19T04:21:03.170Z,8.10
2023-01-19T04:23:29.900Z,8.23
2023-01-19T04:26:14.936Z,8.00
2023-01-19T04:28:41.814Z,8.00
2023-01-19T04:31:08.790Z,7.67
2023-01-19T04:33:35.583Z,7.53
2023-01-19T04:36:04.017Z,8.77
2023-01-19T04:38:30.803Z,7.93
2023-01-19T04:40:57.526Z,7.93
2023-01-19T04:43:24.632Z,7.63
2023-01-19T04:45:51.871Z,7.50
2023-01-19T04:48:19.280Z,8.37
2023-01-19T04:50:46.410Z,8.30
2023-01-19T04:53:13.712Z,8.07
2023-01-19T04:55:40.650Z,7.40
2023-01-19T04:58:07.355Z,8.20
2023-01-19T05:00:34.170Z,6.33
2023-01-19T05:03:01.586Z,6.90
2023-01-19T05:05:29.051Z,7.23
2023-01-19T05:07:56.096Z,7.60
2023-01-19T05:10:23.774Z,8.00
2023-01-19T05:12:51.249Z,7.33
2023-01-19T05:15:18.203Z,7.73
2023-01-19T05:17:45.789Z,7.17
2023-01-19T05:20:16.036Z,7.00
2023-01-19T05:22:43.705Z,7.70
2023-01-19T05:25:10.499Z,7.70
2023-01-19T05:27:37.556Z,7.53
2023-01-19T05:30:05.767Z,8.13
2023-01-19T05:32:32.888Z,7.53
2023-01-19T05:34:59.805Z,6.80
2023-01-19T05:37:26.594Z,7.37
2023-01-19T05:39:53.752Z,8.53
2023-01-19T05:42:20.939Z,6.97
2023-01-19T05:44:47.662Z,7.50
2023-01-19T05:47:14.359Z,7.77
2023-01-19T05:49:41.037Z,7.97
2023-01-19T05:52:07.758Z,7.87
2023-01-19T05:54:34.615Z,7.57
2023-01-19T05:57:02.364Z,7.60
2023-01-19T05:59:29.440Z,8.07
2023-01-19T06:01:57.117Z,7.97
2023-01-19T06:04:23.900Z,8.33
2023-01-19T06:06:50.850Z,8.30
2023-01-19T06:09:17.825Z,8.30
2023-01-19T06:11:45.896Z,7.67
2023-01-19T06:14:12.993Z,8.90
2023-01-19T06:16:40.458Z,7.57
2023-01-19T06:19:07.851Z,7.80
2023-01-19T06:21:34.597Z,7.67
2023-01-19T06:24:01.720Z,7.87
2023-01-19T06:26:28.447Z,7.70
2023-01-19T06:28:55.404Z,8.10
2023-01-19T06:31:22.126Z,7.87
2023-01-19T06:33:48.843Z,7.60
2023-01-19T06:36:15.597Z,7.07
2023-01-19T06:38:42.207Z,7.40
2023-01-19T06:41:08.839Z,7.03
2023-01-19T06:43:35.488Z,7.53
2023-01-19T06:46:02.581Z,7.57
2023-01-19T06:48:29.294Z,7.77
2023-01-19T06:50:58.543Z,7.47
2023-01-19T06:53:27.891Z,7.60
2023-01-19T06:56:01.855Z,7.87
2023-01-19T06:58:29.946Z,7.90
2023-01-19T07:01:04.709Z,8.33
2023-01-19T07:03:32.606Z,7.83
2023-01-19T07:06:02.356Z,8.30
2023-01-19T07:08:29.747Z,9.80
2023-01-19T07:11:26.597Z,9.30
2023-01-19T07:13:51.534Z,7.73
2023-01-19T07:16:18.761Z,8.00
2023-01-19T07:18:47.958Z,8.13
2023-01-19T07:21:15.386Z,8.17
2023-01-19T07:23:43.407Z,7.67
2023-01-19T07:26:10.676Z,7.80
2023-01-19T07:28:37.403Z,6.97
2023-01-19T07:31:05.198Z,7.30
2023-01-19T07:33:32.067Z,6.47
2023-01-19T07:35:58.849Z,7.20
2023-01-19T07:38:25.654Z,7.23
2023-01-19T07:40:52.390Z,6.53
2023-01-19T07:43:19.780Z,6.67
2023-01-19T07:45:46.587Z,6.87
2023-01-19T07:48:13.245Z,7.10
2023-01-19T07:50:39.909Z,6.80
2023-01-19T07:53:08.251Z,6.80
2023-01-19T07:55:35.666Z,6.33
2023-01-19T07:58:06.514Z,6.70
2023-01-19T08:00:37.900Z,6.40
2023-01-19T08:03:05.446Z,6.80
2023-01-19T08:05:33.313Z,7.77
2023-01-19T08:08:00.550Z,7.80
2023-01-19T08:10:28.816Z,8.47
2023-01-19T08:12:56.900Z,7.80
2023-01-19T08:15:24.936Z,8.73
2023-01-19T08:18:05.431Z,7.20
2023-01-19T08:20:32.354Z,7.27
2023-01-19T08:23:03.094Z,8.07
2023-01-19T08:25:33.072Z,7.07
2023-01-19T08:28:00.618Z,7.40
2023-01-19T08:30:27.940Z,5.93
2023-01-19T08:32:57.993Z,6.97
2023-01-19T08:35:24.890Z,5.77
2023-01-19T08:37:51.624Z,6.60
2023-01-19T08:40:18.427Z,6.30
2023-01-19T08:42:45.461Z,6.53
2023-01-19T08:45:12.380Z,6.10
2023-01-19T08:47:39.198Z,6.67
2023-01-19T08:50:06.333Z,6.63
2023-01-19T08:52:33.047Z,6.47
2023-01-19T08:55:00.687Z,6.03
2023-01-19T08:57:28.026Z,6.63
2023-01-19T08:59:54.688Z,5.83
2023-01-19T09:02:21.548Z,5.60
2023-01-19T09:04:48.864Z,6.47
2023-01-19T09:07:15.632Z,6.50
2023-01-19T09:09:43.450Z,6.53
2023-01-19T09:12:10.179Z,5.60
2023-01-19T09:14:36.932Z,5.70
2023-01-19T09:17:04.204Z,5.40
2023-01-19T09:19:30.818Z,6.30
2023-01-19T09:21:59.416Z,6.20
2023-01-19T09:24:26.492Z,6.10
2023-01-19T09:26:53.220Z,6.37
2023-01-19T09:29:20.031Z,6.30
2023-01-19T09:31:46.714Z,5.70
2023-01-19T09:34:13.371Z,6.23
2023-01-19T09:36:40.296Z,6.27
2023-01-19T09:39:07.171Z,6.67
2023-01-19T09:41:36.023Z,6.07
2023-01-19T09:44:03.471Z,5.53
2023-01-19T09:46:42.188Z,6.43
2023-01-19T09:49:19.474Z,6.23
2023-01-19T09:51:49.873Z,5.40
2023-01-19T09:54:40.995Z,4.47
2023-01-19T09:57:12.376Z,5.13
2023-01-19T09:59:39.726Z,4.43
2023-01-19T10:02:25.221Z,4.90
2023-01-19T10:05:16.700Z,4.80
2023-01-19T10:07:53.100Z,4.50
2023-01-19T10:10:27.010Z,4.03
2023-01-19T10:13:12.126Z,4.57
2023-01-19T10:16:00.573Z,4.67
2023-01-19T10:18:36.962Z,4.80
2023-01-19T10:21:12.917Z,4.40
2023-01-19T10:23:48.672Z,4.07
2023-01-19T10:26:27.092Z,3.93
2023-01-19T10:29:05.626Z,3.90
2023-01-19T10:31:34.161Z,4.13
2023-01-19T10:34:01.063Z,4.00
2023-01-19T10:36:35.776Z,4.30
2023-01-19T10:39:05.749Z,3.60
2023-01-19T10:41:47.476Z,4.00
2023-01-19T10:44:27.895Z,3.67
2023-01-19T10:46:57.398Z,4.73
2023-01-19T10:49:44.728Z,4.10
2023-01-19T10:52:25.942Z,4.00
2023-01-19T10:54:52.671Z,3.80
2023-01-19T10:57:36.574Z,4.03
2023-01-19T11:00:05.048Z,3.57
2023-01-19T11:02:32.586Z,3.97
2023-01-19T11:05:26.520Z,3.50
2023-01-19T11:07:53.265Z,3.60
2023-01-19T11:10:28.649Z,3.60
2023-01-19T11:13:01.346Z,3.80
2023-01-19T11:15:51.279Z,3.10
2023-01-19T11:18:29.393Z,3.40
2023-01-19T11:21:01.001Z,4.00
2023-01-19T11:23:31.172Z,4.83
2023-01-19T11:26:01.364Z,3.50
2023-01-19T11:28:30.287Z,3.33
2023-01-19T11:31:10.424Z,3.13
2023-01-19T11:33:59.267Z,3.67
2023-01-19T11:36:28.382Z,3.80
2023-01-19T11:38:57.711Z,3.87
2023-01-19T11:41:37.091Z,3.47
2023-01-19T11:44:14.556Z,3.23
2023-01-19T11:46:45.305Z,3.83
2023-01-19T11:49:21.737Z,3.73
2023-01-19T11:51:51.131Z,3.70
2023-01-19T11:54:31.432Z,3.40
2023-01-19T11:57:10.563Z,3.27
2023-01-19T11:59:37.270Z,3.23
2023-01-19T12:02:31.048Z,3.77
2023-01-19T12:05:06.372Z,3.17
2023-01-19T12:07:35.736Z,3.53
2023-01-19T12:10:28.836Z,3.83
2023-01-19T12:12:57.301Z,3.50
2023-01-19T12:15:27.185Z,3.90
2023-01-19T12:17:58.610Z,4.80
2023-01-19T12:20:28.313Z,4.23
2023-01-19T12:23:07.305Z,3.70
2023-01-19T12:25:54.994Z,3.47
2023-01-19T12:28:28.593Z,3.60
2023-01-19T12:30:56.173Z,4.20
2023-01-19T12:33:34.758Z,2.80
2023-01-19T12:36:05.893Z,3.07
2023-01-19T12:38:47.280Z,3.83
2023-01-19T12:41:23.436Z,3.63
2023-01-19T12:44:12.198Z,3.20
2023-01-19T12:46:40.374Z,3.43
2023-01-19T12:49:30.274Z,3.53
2023-01-19T12:52:28.230Z,3.83
2023-01-19T12:55:13.098Z,3.53
2023-01-19T12:57:51.924Z,3.90
2023-01-19T13:00:24.742Z,3.70
2023-01-19T13:03:03.538Z,3.93
2023-01-19T13:05:39.026Z,4.20
2023-01-19T13:08:06.263Z,4.47
2023-01-19T13:11:09.512Z,4.67
2023-01-19T13:13:39.983Z,3.80
2023-01-19T13:16:18.968Z,4.20
2023-01-19T13:18:50.086Z,4.20
2023-01-19T13:21:28.925Z,4.23
2023-01-19T13:24:01.184Z,4.67
2023-01-19T13:26:31.200Z,4.17
2023-01-19T13:29:11.925Z,3.87
2023-01-19T13:31:40.970Z,3.67
2023-01-19T13:34:24.485Z,4.03
2023-01-19T13:36:53.529Z,4.30
2023-01-19T13:39:20.150Z,4.40
2023-01-19T13:41:48.031Z,4.60
2023-01-19T13:44:26.144Z,5.23
2023-01-19T13:46:54.125Z,4.00
2023-01-19T13:49:31.508Z,3.87
2023-01-19T13:52:11.311Z,3.47
2023-01-19T13:54:46.664Z,3.07
2023-01-19T13:57:38.557Z,3.90
2023-01-19T14:00:14.499Z,3.57
2023-01-19T14:02:59.679Z,3.90
2023-01-19T14:05:33.501Z,4.53
2023-01-19T14:08:15.000Z,5.40
2023-01-19T14:10:53.935Z,4.07
2023-01-19T14:13:25.197Z,4.90
2023-01-19T14:15:55.856Z,5.13
2023-01-19T14:18:24.878Z,4.73
2023-01-19T14:21:05.943Z,4.80
2023-01-19T14:23:47.950Z,4.83
2023-01-19T14:26:39.343Z,5.30
2023-01-19T14:29:28.401Z,4.40
2023-01-19T14:32:15.019Z,3.80
2023-01-19T14:35:04.653Z,4.60
2023-01-19T14:37:34.679Z,4.30
2023-01-19T14:40:16.778Z,4.23
2023-01-19T14:42:45.299Z,5.27
2023-01-19T14:45:27.056Z,3.70
2023-01-19T14:47:57.244Z,3.90
2023-01-19T14:50:27.703Z,4.17
2023-01-19T14:53:02.110Z,4.50
2023-01-19T14:55:39.191Z,3.90
2023-01-19T14:58:14.443Z,4.83
2023-01-19T15:00:42.351Z,4.57
2023-01-19T15:03:09.964Z,4.20
2023-01-19T15:05:52.995Z,5.13
2023-01-19T15:08:29.933Z,4.43
2023-01-19T15:10:58.035Z,4.47
2023-01-19T15:13:27.175Z,4.30
2023-01-19T15:15:57.900Z,4.53
2023-01-19T15:18:36.785Z,4.73
2023-01-19T15:21:03.904Z,4.60
2023-01-19T15:23:31.294Z,4.63
2023-01-19T15:26:03.151Z,5.40
2023-01-19T15:28:30.850Z,5.87
2023-01-19T15:30:59.215Z,4.53
2023-01-19T15:33:30.477Z,4.40
2023-01-19T15:35:57.599Z,4.67
2023-01-19T15:38:24.550Z,4.60
2023-01-19T15:40:51.679Z,4.67
2023-01-19T15:43:18.778Z,5.10
2023-01-19T15:46:01.952Z,5.00
2023-01-19T15:48:28.860Z,4.30
2023-01-19T15:50:55.632Z,4.60
2023-01-19T15:53:24.176Z,5.23
2023-01-19T15:55:56.784Z,5.63
2023-01-19T15:58:24.591Z,5.43
2023-01-19T16:00:55.951Z,5.20
2023-01-19T16:03:29.994Z,5.03
2023-01-19T16:06:00.626Z,5.73
2023-01-19T16:08:28.820Z,4.57
2023-01-19T16:10:55.587Z,5.13
2023-01-19T16:13:22.307Z,4.90
2023-01-19T16:15:49.123Z,5.20
2023-01-19T16:18:15.733Z,5.33
2023-01-19T16:20:42.455Z,5.37
2023-01-19T16:23:15.025Z,5.33
2023-01-19T16:25:42.350Z,5.00
2023-01-19T16:28:09.276Z,5.60
2023-01-19T16:30:36.124Z,5.10
2023-01-19T16:33:03.133Z,5.13
2023-01-19T16:35:29.810Z,5.50
2023-01-19T16:37:56.457Z,4.33
2023-01-19T16:40:23.134Z,5.10
2023-01-19T16:42:49.932Z,5.43
2023-01-19T16:45:16.621Z,5.00
2023-01-19T16:47:45.396Z,5.13
2023-01-19T16:50:12.454Z,4.87
2023-01-19T16:52:39.510Z,5.00
2023-01-19T16:55:09.584Z,5.40
2023-01-19T16:57:39.914Z,5.23
2023-01-19T17:00:09.559Z,5.37
2023-01-19T17:02:36.644Z,5.50
2023-01-19T17:05:03.656Z,5.27
2023-01-19T17:07:30.384Z,7.03
2023-01-19T17:09:57.580Z,6.17
2023-01-19T17:12:24.429Z,5.17
2023-01-19T17:14:51.247Z,7.73
2023-01-19T17:17:18.032Z,9.40
2023-01-19T17:19:45.196Z,8.63
2023-01-19T17:22:12.876Z,8.03
2023-01-19T17:24:42.300Z,6.70
2023-01-19T17:27:09.556Z,6.03
2023-01-19T17:29:36.373Z,5.97
2023-01-19T17:32:03.710Z,6.43
2023-01-19T17:34:30.528Z,5.53
2023-01-19T17:37:02.902Z,6.10
2023-01-19T17:39:30.445Z,6.37
2023-01-19T17:41:57.790Z,5.80
2023-01-19T17:44:25.036Z,6.33
2023-01-19T17:46:51.874Z,6.50
2023-01-19T17:49:18.633Z,6.40
2023-01-19T17:51:45.387Z,5.90
2023-01-19T17:54:12.441Z,5.60
2023-01-19T17:56:41.152Z,5.73
2023-01-19T17:59:08.438Z,5.90
2023-01-19T18:01:39.768Z,5.57
2023-01-19T18:04:08.051Z,5.60
2023-01-19T18:06:34.923Z,5.70
2023-01-19T18:09:01.808Z,5.60
2023-01-19T18:11:28.654Z,4.60
2023-01-19T18:13:55.464Z,5.13
2023-01-19T18:16:29.281Z,6.97
2023-01-19T18:18:57.105Z,6.60
2023-01-19T18:21:27.340Z,12.13
2023-01-19T18:24:02.869Z,9.33
2023-01-19T18:26:31.355Z,8.83
2023-01-19T18:28:58.634Z,5.33
2023-01-19T18:31:26.346Z,6.33
2023-01-19T18:33:53.686Z,6.20
2023-01-19T18:36:20.769Z,7.10
2023-01-19T18:38:47.903Z,5.57
2023-01-19T18:41:17.270Z,6.73
2023-01-19T18:43:45.081Z,6.30
2023-01-19T18:46:12.584Z,7.17
2023-01-19T18:48:40.335Z,7.73
2023-01-19T18:51:09.149Z,8.17
2023-01-19T18:53:36.097Z,8.10
2023-01-19T18:56:03.731Z,7.80
2023-01-19T18:58:32.546Z,8.30
2023-01-19T19:01:00.950Z,8.00
2023-01-19T19:03:27.926Z,7.87
2023-01-19T19:05:54.960Z,8.33
2023-01-19T19:08:21.842Z,8.90
2023-01-19T19:10:48.577Z,9.63
2023-01-19T19:13:17.014Z,9.27
2023-01-19T19:15:46.618Z,10.37
2023-01-19T19:18:13.939Z,11.33
2023-01-19T19:20:43.128Z,11.90
2023-01-19T19:23:12.478Z,11.43
2023-01-19T19:25:39.371Z,10.17
2023-01-19T19:28:06.524Z,10.90
2023-01-19T19:30:35.657Z,15.17
2023-01-19T19:33:02.749Z,15.40
2023-01-19T19:35:29.510Z,12.20
2023-01-19T19:37:57.733Z,11.27
2023-01-19T19:40:28.501Z,10.50
2023-01-19T19:42:57.671Z,10.03
2023-01-19T19:45:25.515Z,10.00
2023-01-19T19:47:52.293Z,10.20
2023-01-19T19:50:19.047Z,9.13
2023-01-19T19:52:45.942Z,9.63
2023-01-19T19:55:12.866Z,10.97
2023-01-19T19:57:39.807Z,9.97
2023-01-19T20:00:07.482Z,9.97
2023-01-19T20:02:34.295Z,11.13
2023-01-19T20:05:01.113Z,12.30
2023-01-19T20:07:27.855Z,12.33
2023-01-19T20:09:55.205Z,11.17
2023-01-19T20:12:22.203Z,11.37
2023-01-19T20:14:49.151Z,10.07
2023-01-19T20:17:16.108Z,9.33
2023-01-19T20:19:47.513Z,8.23
2023-01-19T20:22:14.842Z,7.53
2023-01-19T20:24:41.711Z,7.80
2023-01-19T20:27:08.398Z,7.87
2023-01-19T20:29:35.202Z,7.07
2023-01-19T20:32:02.037Z,7.67
2023-01-19T20:34:33.396Z,7.60
2023-01-19T20:37:01.614Z,8.00
2023-01-19T20:39:30.111Z,7.83
2023-01-19T20:41:57.012Z,8.57
2023-01-19T20:44:25.672Z,8.23
2023-01-19T20:46:53.974Z,7.53
2023-01-19T20:49:21.132Z,7.93
2023-01-19T20:51:48.424Z,7.10
2023-01-19T20:54:17.912Z,7.13
2023-01-19T20:56:44.941Z,7.67
2023-01-19T20:59:12.982Z,9.17
2023-01-19T21:01:41.016Z,8.50
2023-01-19T21:04:08.416Z,8.13
2023-01-19T21:06:35.512Z,8.47
2023-01-19T21:09:02.553Z,9.37
2023-01-19T21:11:29.478Z,9.10
2023-01-19T21:13:56.675Z,8.57
2023-01-19T21:16:28.156Z,8.67
2023-01-19T21:18:55.047Z,8.50
2023-01-19T21:21:30.447Z,9.10
2023-01-19T21:23:59.705Z,8.90
2023-01-19T21:26:26.820Z,8.70
2023-01-19T21:28:53.651Z,8.83
2023-01-19T21:31:22.601Z,9.80
2023-01-19T21:33:53.528Z,9.57
2023-01-19T21:36:21.426Z,9.70
2023-01-19T21:38:48.961Z,9.30
2023-01-19T21:41:16.411Z,8.33
2023-01-19T21:43:43.337Z,9.27
2023-01-19T21:46:19.738Z,9.63
2023-01-19T21:48:47.028Z,10.40
2023-01-19T21:51:15.077Z,10.50
2023-01-19T21:53:42.002Z,9.67
2023-01-19T21:56:09.915Z,11.20
2023-01-19T21:58:36.934Z,9.60
2023-01-19T22:01:06.677Z,10.00
2023-01-19T22:03:33.585Z,9.93
2023-01-19T22:06:05.903Z,9.17
2023-01-19T22:08:33.352Z,10.17
2023-01-19T22:11:19.535Z,10.20
2023-01-19T22:13:46.904Z,9.60
2023-01-19T22:16:15.817Z,9.87
2023-01-19T22:18:44.782Z,10.57
2023-01-19T22:21:14.574Z,9.47
2023-01-19T22:23:41.651Z,8.97
2023-01-19T22:26:09.830Z,10.87
2023-01-19T22:28:37.294Z,10.07
2023-01-19T22:31:12.530Z,11.40
2023-01-19T22:33:39.518Z,10.30
2023-01-19T22:36:11.427Z,9.57
2023-01-19T22:38:39.982Z,10.23
2023-01-19T22:41:27.824Z,9.97
2023-01-19T22:43:56.896Z,9.80
2023-01-19T22:46:26.296Z,9.60
2023-01-19T22:48:53.837Z,9.37
2023-01-19T22:51:21.986Z,10.27
2023-01-19T22:53:48.961Z,10.70
2023-01-19T22:56:18.720Z,9.80
2023-01-19T22:58:46.768Z,10.80
2023-01-19T23:01:16.176Z,9.07
2023-01-19T23:03:43.323Z,9.80
2023-01-19T23:06:15.982Z,10.20
2023-01-19T23:08:43.812Z,10.73
2023-01-19T23:11:13.342Z,11.10
2023-01-19T23:13:40.414Z,10.87
2023-01-19T23:16:08.246Z,11.87
2023-01-19T23:18:35.217Z,11.50
2023-01-19T23:21:22.004Z,10.80
2023-01-19T23:23:48.829Z,10.57
2023-01-19T23:26:18.485Z,10.77
2023-01-19T23:28:46.741Z,11.63
2023-01-19T23:31:14.585Z,11.43
2023-01-19T23:33:41.779Z,12.17
2023-01-19T23:36:08.990Z,11.50
2023-01-19T23:38:35.682Z,12.30
2023-01-19T23:41:02.451Z,11.83
2023-01-19T23:43:29.154Z,10.87
2023-01-19T23:45:56.034Z,12.10
2023-01-19T23:48:24.669Z,13.73
2023-01-19T23:50:51.307Z,13.20
2023-01-19T23:53:17.953Z,15.40
2023-01-19T23:55:44.613Z,14.10
2023-01-19T23:58:11.317Z,13.10
